• Join FlightAware (Why Join?)
  • Login
  • US Flag 
03:31AM EDT


 

Airport Tracker/Info


-or-


 

Live Flight TrackerFlight Track Log ✈ ANA1187 ✈ 14-Apr-2014 ✈ RJTT / HND - RCSS / TSA

Flight Track Log - Related Links

Times and Time Zones

All times are in EDT time to prevent confusion due to time zone crossing. See the ANA1187 flight status page for this flight to view local times or setup timezone preferences in your user account.

Time Position Orientation Groundspeed Altitude Reporting Facility
EDT Latitude Longitude Course Direction KTS MPH feet Rate Location/Type
12:39AM 35.5461 139.7894 148° Southeast 150 173 800  Level FlightAware ADS-B (RJTK)
12:40AM 35.5360 139.7966 148° Southeast 156 180 1,900 3,300 Climbing FlightAware ADS-B (RJTK)
12:40AM 35.5219 139.8067 150° Southeast 165 190 3,000 2,580 Climbing FlightAware ADS-B (RJTF)
12:40AM 35.5121 139.8136 149° Southeast 177 204 3,600 2,640 Climbing FlightAware ADS-B (RJTF)
12:40AM 35.5075 139.8168 150° Southeast 186 214 3,800 1,980 Climbing FlightAware ADS-B (RJTK)
12:40AM 35.4999 139.8220 153° Southeast 198 228 4,100 1,740 Climbing FlightAware ADS-B (RJTF)
12:41AM 35.4951 139.8242 162° South 209 241 4,300 2,400 Climbing FlightAware ADS-B (RJTF)
12:41AM 35.4903 139.8252 168° South 215 247 4,500 1,800 Climbing FlightAware ADS-B (RJTF)
12:41AM 35.4851 139.8254 182° South 229 264 4,600 1,620 Climbing FlightAware ADS-B (RJTF)
12:41AM 35.4798 139.8245 193° South 240 276 4,800 2,400 Climbing FlightAware ADS-B (RJTF)
12:41AM 35.4743 139.8228 199° South 249 287 5,000 2,520 Climbing FlightAware ADS-B (RJTF)
12:41AM 35.4577 139.8153 201° Southwest 266 306 5,600 3,120 Climbing FlightAware ADS-B (RJTF)
12:41AM 35.4448 139.8093 202° Southwest 265 305 6,300 3,720 Climbing FlightAware ADS-B (RJTK)
12:41AM 35.4395 139.8067 202° Southwest 272 313 6,600 3,960 Climbing FlightAware ADS-B (RJTF)
12:42AM 35.4220 139.7979 203° Southwest 267 307 7,700 4,200 Climbing FlightAware ADS-B (RJTF)
12:42AM 35.4053 139.7897 203° Southwest 267 307 8,700 4,980 Climbing FlightAware ADS-B (RJTF)
12:42AM 35.3983 139.7861 203° Southwest 261 300 9,200 3,840 Climbing FlightAware ADS-B (RJTK)
12:42AM 35.3881 139.7809 203° Southwest 275 316 9,600 2,580 Climbing FlightAware ADS-B (RJTF)
12:43AM 35.3504 139.7624 202° Southwest 298 343 10,900 2,400 Climbing FlightAware ADS-B (RJTK)
12:43AM 35.3442 139.7595 202° Southwest 311 358 11,000 1,920 Climbing FlightAware ADS-B (RJTF)
12:43AM 35.3185 139.7413 222° Southwest 326 375 11,800 2,580 Climbing FlightAware ADS-B (RJTF)
12:43AM 35.3087 139.7286 234° Southwest 328 377 12,300 3,240 Climbing FlightAware ADS-B (RJTF)
12:43AM 35.2987 139.7085 248° West 333 383 13,100 3,120 Climbing FlightAware ADS-B (RJTF)
12:44AM 35.2944 139.6941 255° West 335 386 13,400 3,600 Climbing FlightAware ADS-B (RJTF)
12:44AM 35.2924 139.6826 259° West 336 387 13,700 2,700 Climbing FlightAware ADS-B (RJTK)
12:44AM 35.2812 139.6237 258° West 358 412 15,100 2,760 Climbing FlightAware ADS-B (RJTF)
12:45AM 35.2701 139.5603 258° West 370 426 16,700 3,000 Climbing FlightAware ADS-B (RJTF)
12:45AM 35.2714 139.5681 258° West 369 425 16,700 3,060 Level FlightAware ADS-B (RJTF)
12:45AM 35.2664 139.5403 258° West 376 433 18,300 3,360 Climbing FlightAware ADS-B (RJTF)
12:46AM 35.2414 139.4038 257° West 377 434 20,900 3,480 Climbing FlightAware ADS-B (RJTF)
12:46AM 35.2323 139.3547 257° West 374 430 22,700 3,000 Climbing FlightAware ADS-B (RJTF)
12:47AM 35.2155 139.2646 257° West 382 440 24,500 1,920 Climbing FlightAware ADS-B (RJTF)
12:48AM 35.1947 139.1533 258° West 418 481 25,500 1,680 Climbing FlightAware ADS-B (RJTK)
12:49AM 35.1566 138.9523 257° West 447 514 28,200 1,980 Climbing FlightAware ADS-B (RJTK)
12:50AM 35.1382 138.8552 257° West 448 516 29,700 2,040 Climbing FlightAware ADS-B (RJTK)
12:51AM 35.1164 138.7417 257° West 439 505 31,200 1,860 Climbing FlightAware ADS-B (RJTK)
12:51AM 35.1015 138.6639 257° West 428 493 32,200 1,680 Climbing FlightAware ADS-B (RJTK)
12:52AM 35.0828 138.5671 257° West 431 496 33,300 1,560 Climbing FlightAware ADS-B (RJTK)
12:53AM 35.0560 138.4300 257° West 425 489 34,800 1,380 Climbing FlightAware ADS-B (RJTK)
12:53AM 35.0407 138.3520 257° West 419 482 35,500 780 Climbing FlightAware ADS-B (RJTK)
12:54AM 35.0191 138.2418 257° West 422 486 35,900 300 Climbing FlightAware ADS-B (RJTK)
12:55AM 35.0014 138.1532 256° West 422 486 36,000 60 Climbing FlightAware ADS-B (RJTK)
12:56AM 34.9820 138.0559 256° West 423 487 36,000  Level FlightAware ADS-B (RJTK)
12:56AM 34.9655 137.9739 256° West 426 490 36,000  Level FlightAware ADS-B (RJTK)
12:58AM 34.9262 137.7784 257° West 425 489 36,000  Level FlightAware ADS-B (RJTK)
12:58AM 34.8998 137.6929 234° Southwest 438 504 36,000  Level FlightAware ADS-B (RJTK)
12:59AM 34.8316 137.5790 241° Southwest 429 494 36,000  Level FlightAware ADS-B (RJTK)
01:00AM 34.7862 137.4896 236° Southwest 435 501 36,000  Level FlightAware ADS-B (RJTK)
01:01AM 34.7180 137.3730 234° Southwest 434 499 36,000  Level FlightAware ADS-B (RJTK)
01:02AM 34.6681 137.2903 235° Southwest 422 486 36,000  Level FlightAware ADS-B (RJTK)
01:03AM 34.6009 137.1787 234° Southwest 417 480 36,000  Level FlightAware ADS-B (RJTK)
01:04AM 34.5233 137.0496 234° Southwest 414 476 36,000  Level FlightAware ADS-B (RJTK)
01:06AM 34.3488 136.7604 234° Southwest 409 471 36,000  Level FlightAware ADS-B (RJTK)
01:07AM 34.3735 136.7485 239° Southwest  Level Estimated
01:07AM 34.2859 136.6572 234° Southwest 409 471 36,000  Level FlightAware ADS-B (RJTK)
01:10AM 34.0813 136.3227 234° Southwest 411 473 36,000  Level FlightAware ADS-B (RJTK)
01:45AM 32.4468 132.3329 242° Southwest 394 453 36,000  Level FlightAware ADS-B (RJFF / FUK)
01:48AM 32.3080 132.1011 235° Southwest  Level Estimated
01:49AM 32.2480 132.0012 235° Southwest  Level Estimated
01:50AM 32.1879 131.9015 235° Southwest  Level Estimated
01:51AM 32.1277 131.8019 235° Southwest  Level Estimated
01:52AM 32.0674 131.7025 234° Southwest  Level Estimated
01:53AM 32.0070 131.6032 234° Southwest  Level Estimated
01:54AM 31.9466 131.5040 234° Southwest  Level Estimated
01:55AM 31.8861 131.4049 234° Southwest  Level Estimated
01:56AM 31.8256 131.3060 234° Southwest  Level Estimated
01:57AM 31.7649 131.2072 234° Southwest  Level Estimated
01:58AM 31.7042 131.1085 234° Southwest  Level Estimated
01:59AM 31.6434 131.0100 234° Southwest  Level Estimated
02:00AM 31.5825 130.9116 234° Southwest  Level Estimated
02:01AM 31.5215 130.8133 234° Southwest  Level Estimated
02:02AM 31.4605 130.7151 234° Southwest  Level Estimated
02:03AM 31.3994 130.6171 234° Southwest  Level Estimated
02:04AM 31.3382 130.5192 234° Southwest  Level Estimated
02:05AM 31.2770 130.4214 234° Southwest  Level Estimated
02:06AM 31.2156 130.3238 234° Southwest  Level Estimated
02:07AM 31.1542 130.2263 234° Southwest  Level Estimated
02:08AM 31.0928 130.1289 234° Southwest  Level Estimated
02:09AM 31.0312 130.0316 234° Southwest  Level Estimated
02:10AM 30.9696 129.9345 234° Southwest  Level Estimated
02:11AM 30.9079 129.8374 233° Southwest  Level Estimated
02:12AM 30.8461 129.7406 233° Southwest  Level Estimated
02:13AM 30.7843 129.6438 233° Southwest  Level Estimated
02:14AM 30.7224 129.5471 233° Southwest  Level Estimated
02:15AM 30.6604 129.4506 233° Southwest  Level Estimated
02:16AM 30.5984 129.3542 233° Southwest  Level Estimated
02:17AM 30.5362 129.2580 233° Southwest  Level Estimated
02:18AM 30.4740 129.1618 233° Southwest  Level Estimated
02:19AM 30.4118 129.0658 233° Southwest  Level Estimated
02:20AM 30.3494 128.9699 233° Southwest  Level Estimated
02:21AM 30.2870 128.8741 233° Southwest  Level Estimated
02:22AM 30.2246 128.7785 233° Southwest  Level Estimated
02:23AM 30.1620 128.6829 233° Southwest  Level Estimated
02:24AM 30.0994 128.5875 233° Southwest  Level Estimated
02:25AM 30.0367 128.4922 233° Southwest  Level Estimated
02:26AM 29.9740 128.3970 233° Southwest  Level Estimated
02:27AM 29.9111 128.3020 233° Southwest  Level Estimated
02:28AM 29.8483 128.2071 233° Southwest  Level Estimated
02:29AM 29.7853 128.1122 233° Southwest  Level Estimated
02:30AM 29.7223 128.0176 233° Southwest  Level Estimated
02:31AM 29.6592 127.9230 233° Southwest  Level Estimated
02:32AM 29.5960 127.8285 232° Southwest  Level Estimated
02:33AM 29.5328 127.7342 232° Southwest  Level Estimated
02:34AM 29.4695 127.6400 232° Southwest  Level Estimated
02:35AM 29.4062 127.5459 232° Southwest  Level Estimated
02:36AM 29.3428 127.4519 232° Southwest  Level Estimated
02:37AM 29.2793 127.3580 232° Southwest  Level Estimated
02:38AM 29.2157 127.2643 232° Southwest  Level Estimated
02:39AM 29.1521 127.1706 232° Southwest  Level Estimated
02:40AM 29.0884 127.0771 232° Southwest  Level Estimated
02:41AM 29.0247 126.9837 232° Southwest  Level Estimated
02:42AM 28.9608 126.8904 232° Southwest  Level Estimated
02:43AM 28.8970 126.7972 232° Southwest  Level Estimated
02:44AM 28.8330 126.7042 232° Southwest  Level Estimated
02:45AM 28.7690 126.6112 232° Southwest  Level Estimated
02:46AM 28.7050 126.5184 232° Southwest  Level Estimated
02:47AM 28.6408 126.4257 232° Southwest  Level Estimated
02:48AM 28.5766 126.3331 232° Southwest  Level Estimated
02:49AM 28.5124 126.2406 232° Southwest  Level Estimated
02:50AM 28.4480 126.1482 232° Southwest  Level Estimated
02:51AM 28.3837 126.0559 232° Southwest  Level Estimated
02:52AM 28.3192 125.9638 232° Southwest  Level Estimated
02:53AM 28.2547 125.8717 232° Southwest  Level Estimated
02:54AM 28.1901 125.7798 231° Southwest  Level Estimated
02:55AM 28.1255 125.6880 231° Southwest  Level Estimated
02:56AM 28.0608 125.5963 231° Southwest  Level Estimated
02:57AM 27.9961 125.5047 231° Southwest  Level Estimated
02:58AM 27.9313 125.4132 231° Southwest  Level Estimated
02:59AM 27.8664 125.3218 231° Southwest  Level Estimated
03:00AM 27.8015 125.2306 231° Southwest  Level Estimated
03:01AM 27.7365 125.1394 231° Southwest  Level Estimated
03:02AM 27.6714 125.0483 231° Southwest  Level Estimated
03:03AM 27.6063 124.9574 231° Southwest  Level Estimated
03:04AM 27.5411 124.8666 231° Southwest  Level Estimated
03:05AM 27.4759 124.7758 231° Southwest  Level Estimated
03:06AM 27.4106 124.6852 231° Southwest  Level Estimated
03:07AM 27.3453 124.5947 231° Southwest  Level Estimated
03:08AM 27.2799 124.5043 231° Southwest  Level Estimated
03:09AM 27.2144 124.4140 231° Southwest  Level Estimated
03:10AM 27.1489 124.3238 231° Southwest  Level Estimated
03:11AM 27.0833 124.2337 231° Southwest  Level Estimated
03:12AM 27.0177 124.1437 231° Southwest  Level Estimated
03:13AM 26.9520 124.0539 231° Southwest  Level Estimated
03:14AM 26.8862 123.9641 231° Southwest  Level Estimated
03:15AM 26.8204 123.8744 231° Southwest  Level Estimated
03:16AM 26.7546 123.7849 231° Southwest  Level Estimated
03:17AM 26.6886 123.6954 230° Southwest  Level Estimated
03:18AM 26.6227 123.6060 230° Southwest  Level Estimated
03:19AM 26.5566 123.5168 230° Southwest  Level Estimated
03:20AM 26.4905 123.4276 230° Southwest  Level Estimated
03:21AM 26.4244 123.3386 230° Southwest  Level Estimated
03:22AM 26.3582 123.2496 230° Southwest  Level Estimated
03:23AM 26.2920 123.1608 230° Southwest  Level Estimated
03:24AM 26.2257 123.0721 230° Southwest  Level Estimated
03:25AM 26.1593 122.9834 230° Southwest  Level Estimated
03:26AM 26.0929 122.8949 230° Southwest  Level Estimated
03:27AM 26.0264 122.8064 230° Southwest  Level Estimated
03:28AM 25.9599 122.7181 230° Southwest  Level Estimated
03:29AM 25.8933 122.6299 230° Southwest  Level Estimated
03:30AM 25.8267 122.5417 230° Southwest  Level Estimated
03:31AM 25.7600 122.4537 230° Southwest  Level Estimated
03:32AM 25.6933 122.3657 230° Southwest  Level Estimated
03:33AM 25.6265 122.2779 230° Southwest  Level Estimated
03:34AM 25.5596 122.1901 230° Southwest  Level Estimated
03:35AM 25.4927 122.1025 230° Southwest  Level Estimated
03:36AM 25.4258 122.0150 230° Southwest  Level Estimated
03:37AM 25.3588 121.9275 230° Southwest  Level Estimated
03:38AM 25.2917 121.8401 230° Southwest  Level Estimated
03:39AM 25.2246 121.7529 230° Southwest  Level Estimated
03:40AM 25.1575 121.6657 230° Southwest  Level Estimated
03:41AM 25.0903 121.5787 230° Southwest  Level Estimated
03:42AM 25.0694 121.5517 230° Southwest  Level Estimated
03:43AM 25.0694 121.5517 North  Level Estimated
03:44AM 25.0694 121.5517 North  Level Estimated
03:45AM 25.0694 121.5517 North  Level Estimated
03:46AM 25.0694 121.5517 North  Level Estimated
03:47AM 25.0694 121.5517 North  Level Estimated
03:48AM 25.0694 121.5517 North  Level Estimated
03:49AM 25.0694 121.5517 North  Level Estimated
03:50AM 25.0694 121.5517 North  Level Estimated
03:51AM 25.0694 121.5517 North  Level Estimated